sensor_id;sensor_type;location;lat;lon;timestamp;P1;durP1;ratioP1;P2;durP2;ratioP2
65641;SDS011;52340;-6.720;108.544;2023-02-28T00:05:31;30.98;;;18.15;;
65641;SDS011;52340;-6.720;108.544;2023-02-28T00:12:13;29.30;;;17.63;;
65641;SDS011;52340;-6.720;108.544;2023-02-28T00:33:00;30.55;;;16.30;;
65641;SDS011;52340;-6.720;108.544;2023-02-28T01:23:03;26.35;;;18.83;;
65641;SDS011;52340;-6.720;108.544;2023-02-28T01:25:16;28.98;;;18.25;;
65641;SDS011;52340;-6.720;108.544;2023-02-28T01:26:19;31.70;;;17.75;;
65641;SDS011;52340;-6.720;108.544;2023-02-28T01:29:38;35.08;;;22.52;;
65641;SDS011;52340;-6.720;108.544;2023-02-28T01:36:11;32.15;;;20.35;;
65641;SDS011;52340;-6.720;108.544;2023-02-28T01:37:13;28.35;;;20.35;;
65641;SDS011;52340;-6.720;108.544;2023-02-28T01:38:17;30.52;;;19.38;;
65641;SDS011;52340;-6.720;108.544;2023-02-28T01:40:24;28.73;;;19.08;;
65641;SDS011;52340;-6.720;108.544;2023-02-28T01:41:26;29.60;;;19.17;;
65641;SDS011;52340;-6.720;108.544;2023-02-28T01:42:30;28.23;;;18.98;;
65641;SDS011;52340;-6.720;108.544;2023-02-28T01:45:52;30.58;;;20.50;;
65641;SDS011;52340;-6.720;108.544;2023-02-28T01:46:56;30.35;;;19.70;;
65641;SDS011;52340;-6.720;108.544;2023-02-28T01:47:59;31.65;;;19.92;;
65641;SDS011;52340;-6.720;108.544;2023-02-28T01:49:06;32.45;;;19.80;;
65641;SDS011;52340;-6.720;108.544;2023-02-28T02:09:45;25.20;;;17.63;;
65641;SDS011;52340;-6.720;108.544;2023-02-28T02:43:22;28.10;;;16.77;;
65641;SDS011;52340;-6.720;108.544;2023-02-28T02:44:25;26.80;;;15.50;;
65641;SDS011;52340;-6.720;108.544;2023-02-28T02:50:03;25.33;;;16.75;;
65641;SDS011;52340;-6.720;108.544;2023-02-28T02:54:40;23.08;;;15.50;;
65641;SDS011;52340;-6.720;108.544;2023-02-28T03:00:26;23.63;;;15.38;;
65641;SDS011;52340;-6.720;108.544;2023-02-28T03:06:15;24.38;;;15.02;;
65641;SDS011;52340;-6.720;108.544;2023-02-28T03:07:20;23.08;;;14.02;;
65641;SDS011;52340;-6.720;108.544;2023-02-28T03:12:00;26.02;;;16.48;;
65641;SDS011;52340;-6.720;108.544;2023-02-28T03:19:10;22.02;;;15.38;;
65641;SDS011;52340;-6.720;108.544;2023-02-28T03:20:12;22.10;;;15.10;;
65641;SDS011;52340;-6.720;108.544;2023-02-28T03:29:15;21.70;;;12.60;;
65641;SDS011;52340;-6.720;108.544;2023-02-28T03:30:25;19.83;;;11.45;;
65641;SDS011;52340;-6.720;108.544;2023-02-28T03:40:55;17.42;;;11.75;;
65641;SDS011;52340;-6.720;108.544;2023-02-28T03:44:09;19.70;;;11.85;;
65641;SDS011;52340;-6.720;108.544;2023-02-28T03:48:48;18.15;;;12.40;;
65641;SDS011;52340;-6.720;108.544;2023-02-28T04:00:28;22.48;;;13.57;;
65641;SDS011;52340;-6.720;108.544;2023-02-28T04:08:34;22.98;;;12.45;;
65641;SDS011;52340;-6.720;108.544;2023-02-28T04:09:36;18.25;;;12.75;;
65641;SDS011;52340;-6.720;108.544;2023-02-28T04:10:41;20.77;;;13.35;;
65641;SDS011;52340;-6.720;108.544;2023-02-28T04:11:49;20.70;;;14.07;;
65641;SDS011;52340;-6.720;108.544;2023-02-28T04:14:02;17.60;;;13.07;;
65641;SDS011;52340;-6.720;108.544;2023-02-28T04:15:07;23.75;;;14.90;;
65641;SDS011;52340;-6.720;108.544;2023-02-28T04:16:15;22.40;;;14.57;;
65641;SDS011;52340;-6.720;108.544;2023-02-28T04:17:18;19.65;;;14.05;;
65641;SDS011;52340;-6.720;108.544;2023-02-28T04:18:21;21.27;;;14.32;;
65641;SDS011;52340;-6.720;108.544;2023-02-28T04:19:23;23.92;;;14.82;;
65641;SDS011;52340;-6.720;108.544;2023-02-28T04:20:26;19.20;;;14.95;;
65641;SDS011;52340;-6.720;108.544;2023-02-28T04:21:30;22.02;;;14.05;;
65641;SDS011;52340;-6.720;108.544;2023-02-28T04:22:33;21.77;;;14.50;;
65641;SDS011;52340;-6.720;108.544;2023-02-28T04:23:40;22.30;;;15.02;;
65641;SDS011;52340;-6.720;108.544;2023-02-28T04:24:46;22.45;;;15.20;;
65641;SDS011;52340;-6.720;108.544;2023-02-28T04:25:54;23.70;;;15.25;;
65641;SDS011;52340;-6.720;108.544;2023-02-28T04:26:57;21.80;;;15.43;;
65641;SDS011;52340;-6.720;108.544;2023-02-28T04:28:01;22.92;;;14.88;;
65641;SDS011;52340;-6.720;108.544;2023-02-28T04:29:04;20.77;;;14.35;;
65641;SDS011;52340;-6.720;108.544;2023-02-28T04:30:07;19.88;;;15.02;;
65641;SDS011;52340;-6.720;108.544;2023-02-28T04:31:11;22.63;;;15.68;;
65641;SDS011;52340;-6.720;108.544;2023-02-28T04:32:14;22.33;;;16.33;;
65641;SDS011;52340;-6.720;108.544;2023-02-28T04:33:16;24.00;;;16.02;;
65641;SDS011;52340;-6.720;108.544;2023-02-28T04:34:18;23.40;;;16.27;;
65641;SDS011;52340;-6.720;108.544;2023-02-28T04:35:21;22.60;;;16.15;;
65641;SDS011;52340;-6.720;108.544;2023-02-28T04:36:27;26.13;;;16.67;;
65641;SDS011;52340;-6.720;108.544;2023-02-28T04:37:29;26.63;;;17.83;;
65641;SDS011;52340;-6.720;108.544;2023-02-28T04:38:32;28.23;;;17.38;;
65641;SDS011;52340;-6.720;108.544;2023-02-28T04:39:35;25.73;;;16.67;;
65641;SDS011;52340;-6.720;108.544;2023-02-28T04:40:39;21.60;;;15.60;;
65641;SDS011;52340;-6.720;108.544;2023-02-28T04:41:41;25.33;;;17.60;;
65641;SDS011;52340;-6.720;108.544;2023-02-28T04:43:43;25.57;;;17.60;;
65641;SDS011;52340;-6.720;108.544;2023-02-28T04:44:45;25.48;;;18.42;;
65641;SDS011;52340;-6.720;108.544;2023-02-28T04:45:47;24.75;;;17.65;;
65641;SDS011;52340;-6.720;108.544;2023-02-28T04:46:50;26.75;;;18.75;;
65641;SDS011;52340;-6.720;108.544;2023-02-28T04:47:54;27.15;;;18.45;;
65641;SDS011;52340;-6.720;108.544;2023-02-28T04:49:01;25.13;;;18.48;;
65641;SDS011;52340;-6.720;108.544;2023-02-28T04:50:06;24.65;;;17.88;;
65641;SDS011;52340;-6.720;108.544;2023-02-28T04:51:09;24.42;;;18.35;;
65641;SDS011;52340;-6.720;108.544;2023-02-28T04:52:14;25.42;;;19.08;;
65641;SDS011;52340;-6.720;108.544;2023-02-28T04:55:15;24.87;;;18.50;;
65641;SDS011;52340;-6.720;108.544;2023-02-28T04:56:19;26.05;;;18.92;;
65641;SDS011;52340;-6.720;108.544;2023-02-28T04:57:22;23.25;;;18.50;;
65641;SDS011;52340;-6.720;108.544;2023-02-28T04:58:24;23.73;;;18.20;;
65641;SDS011;52340;-6.720;108.544;2023-02-28T05:00:31;24.15;;;18.63;;
65641;SDS011;52340;-6.720;108.544;2023-02-28T05:01:34;25.35;;;17.52;;
65641;SDS011;52340;-6.720;108.544;2023-02-28T05:02:37;24.35;;;17.75;;
65641;SDS011;52340;-6.720;108.544;2023-02-28T05:03:42;24.63;;;18.02;;
65641;SDS011;52340;-6.720;108.544;2023-02-28T05:04:47;27.58;;;19.13;;
65641;SDS011;52340;-6.720;108.544;2023-02-28T05:05:50;27.52;;;18.95;;
65641;SDS011;52340;-6.720;108.544;2023-02-28T05:06:54;23.48;;;17.83;;
65641;SDS011;52340;-6.720;108.544;2023-02-28T05:07:57;24.67;;;17.58;;
65641;SDS011;52340;-6.720;108.544;2023-02-28T05:09:00;22.77;;;17.40;;
65641;SDS011;52340;-6.720;108.544;2023-02-28T05:10:01;25.67;;;18.52;;
65641;SDS011;52340;-6.720;108.544;2023-02-28T05:11:06;27.58;;;19.48;;
65641;SDS011;52340;-6.720;108.544;2023-02-28T05:13:16;27.10;;;19.73;;
65641;SDS011;52340;-6.720;108.544;2023-02-28T05:14:20;26.60;;;19.02;;
65641;SDS011;52340;-6.720;108.544;2023-02-28T05:15:24;24.42;;;18.65;;
65641;SDS011;52340;-6.720;108.544;2023-02-28T05:17:28;23.95;;;19.00;;
65641;SDS011;52340;-6.720;108.544;2023-02-28T05:21:53;23.95;;;17.50;;
65641;SDS011;52340;-6.720;108.544;2023-02-28T05:22:56;22.02;;;17.48;;
65641;SDS011;52340;-6.720;108.544;2023-02-28T05:24:03;24.73;;;18.35;;
65641;SDS011;52340;-6.720;108.544;2023-02-28T05:25:05;25.65;;;19.20;;
65641;SDS011;52340;-6.720;108.544;2023-02-28T05:27:13;25.98;;;19.05;;
65641;SDS011;52340;-6.720;108.544;2023-02-28T05:28:17;25.30;;;19.10;;
65641;SDS011;52340;-6.720;108.544;2023-02-28T05:29:20;27.13;;;18.15;;
65641;SDS011;52340;-6.720;108.544;2023-02-28T05:30:23;26.48;;;18.98;;
65641;SDS011;52340;-6.720;108.544;2023-02-28T05:31:25;25.98;;;17.98;;
65641;SDS011;52340;-6.720;108.544;2023-02-28T05:32:27;24.27;;;19.85;;
65641;SDS011;52340;-6.720;108.544;2023-02-28T05:33:32;28.45;;;19.60;;
65641;SDS011;52340;-6.720;108.544;2023-02-28T05:34:36;27.08;;;19.60;;
65641;SDS011;52340;-6.720;108.544;2023-02-28T05:35:48;24.13;;;18.45;;
65641;SDS011;52340;-6.720;108.544;2023-02-28T05:36:52;22.48;;;18.42;;
65641;SDS011;52340;-6.720;108.544;2023-02-28T05:37:54;25.75;;;20.38;;
65641;SDS011;52340;-6.720;108.544;2023-02-28T05:38:57;27.35;;;20.85;;
65641;SDS011;52340;-6.720;108.544;2023-02-28T05:40:01;23.20;;;18.52;;
65641;SDS011;52340;-6.720;108.544;2023-02-28T05:41:06;24.92;;;19.10;;
65641;SDS011;52340;-6.720;108.544;2023-02-28T05:42:10;27.30;;;20.13;;
65641;SDS011;52340;-6.720;108.544;2023-02-28T05:43:14;24.50;;;19.70;;
65641;SDS011;52340;-6.720;108.544;2023-02-28T05:44:15;24.98;;;19.65;;
65641;SDS011;52340;-6.720;108.544;2023-02-28T05:45:19;25.33;;;18.90;;
65641;SDS011;52340;-6.720;108.544;2023-02-28T05:46:21;26.13;;;19.42;;
65641;SDS011;52340;-6.720;108.544;2023-02-28T05:48:23;25.67;;;19.77;;
65641;SDS011;52340;-6.720;108.544;2023-02-28T05:49:31;23.55;;;18.83;;
65641;SDS011;52340;-6.720;108.544;2023-02-28T05:50:33;25.20;;;18.80;;
65641;SDS011;52340;-6.720;108.544;2023-02-28T05:51:35;25.55;;;18.90;;
65641;SDS011;52340;-6.720;108.544;2023-02-28T05:52:40;26.67;;;20.88;;
65641;SDS011;52340;-6.720;108.544;2023-02-28T05:56:51;24.63;;;18.38;;
65641;SDS011;52340;-6.720;108.544;2023-02-28T06:00:08;25.75;;;20.23;;
65641;SDS011;52340;-6.720;108.544;2023-02-28T06:01:22;28.52;;;19.75;;
65641;SDS011;52340;-6.720;108.544;2023-02-28T06:02:32;29.83;;;21.40;;
65641;SDS011;52340;-6.720;108.544;2023-02-28T06:03:36;29.60;;;21.58;;
65641;SDS011;52340;-6.720;108.544;2023-02-28T06:04:38;28.10;;;20.48;;
65641;SDS011;52340;-6.720;108.544;2023-02-28T06:05:41;26.83;;;20.88;;
65641;SDS011;52340;-6.720;108.544;2023-02-28T06:06:43;32.88;;;22.45;;
65641;SDS011;52340;-6.720;108.544;2023-02-28T06:07:47;29.98;;;21.25;;
65641;SDS011;52340;-6.720;108.544;2023-02-28T06:08:49;29.92;;;22.08;;
65641;SDS011;52340;-6.720;108.544;2023-02-28T06:09:53;30.10;;;22.48;;
65641;SDS011;52340;-6.720;108.544;2023-02-28T06:10:55;29.65;;;23.13;;
65641;SDS011;52340;-6.720;108.544;2023-02-28T06:11:59;30.15;;;22.92;;
65641;SDS011;52340;-6.720;108.544;2023-02-28T06:13:02;30.25;;;22.77;;
65641;SDS011;52340;-6.720;108.544;2023-02-28T06:14:05;33.28;;;23.85;;
65641;SDS011;52340;-6.720;108.544;2023-02-28T06:16:08;31.73;;;24.03;;
65641;SDS011;52340;-6.720;108.544;2023-02-28T06:17:12;25.75;;;20.00;;
65641;SDS011;52340;-6.720;108.544;2023-02-28T06:18:14;24.27;;;20.17;;
65641;SDS011;52340;-6.720;108.544;2023-02-28T06:25:09;37.03;;;24.38;;
65641;SDS011;52340;-6.720;108.544;2023-02-28T06:31:59;30.98;;;25.27;;
65641;SDS011;52340;-6.720;108.544;2023-02-28T06:33:03;32.38;;;24.95;;
65641;SDS011;52340;-6.720;108.544;2023-02-28T06:37:35;31.27;;;26.75;;
65641;SDS011;52340;-6.720;108.544;2023-02-28T06:39:47;31.42;;;25.75;;
65641;SDS011;52340;-6.720;108.544;2023-02-28T06:46:44;31.38;;;25.73;;
65641;SDS011;52340;-6.720;108.544;2023-02-28T06:51:16;31.98;;;24.23;;
65641;SDS011;52340;-6.720;108.544;2023-02-28T06:52:20;31.27;;;23.58;;
65641;SDS011;52340;-6.720;108.544;2023-02-28T06:56:51;33.13;;;23.73;;
65641;SDS011;52340;-6.720;108.544;2023-02-28T07:17:12;22.35;;;14.90;;
65641;SDS011;52340;-6.720;108.544;2023-02-28T08:02:06;14.85;;;8.25;;
65641;SDS011;52340;-6.720;108.544;2023-02-28T10:10:38;17.77;;;13.27;;
65641;SDS011;52340;-6.720;108.544;2023-02-28T10:14:04;16.08;;;11.50;;
65641;SDS011;52340;-6.720;108.544;2023-02-28T14:44:33;57.78;;;41.88;;
65641;SDS011;52340;-6.720;108.544;2023-02-28T14:46:48;48.03;;;32.40;;
65641;SDS011;52340;-6.720;108.544;2023-02-28T14:47:51;51.17;;;34.90;;
65641;SDS011;52340;-6.720;108.544;2023-02-28T14:48:55;51.90;;;34.25;;
65641;SDS011;52340;-6.720;108.544;2023-02-28T14:51:01;42.33;;;29.60;;
65641;SDS011;52340;-6.720;108.544;2023-02-28T14:52:09;46.00;;;28.35;;
65641;SDS011;52340;-6.720;108.544;2023-02-28T14:54:20;38.00;;;26.38;;
65641;SDS011;52340;-6.720;108.544;2023-02-28T14:56:36;39.58;;;24.50;;
65641;SDS011;52340;-6.720;108.544;2023-02-28T14:57:39;32.47;;;23.80;;
65641;SDS011;52340;-6.720;108.544;2023-02-28T15:00:00;34.75;;;23.20;;
65641;SDS011;52340;-6.720;108.544;2023-02-28T15:02:29;31.23;;;22.17;;
65641;SDS011;52340;-6.720;108.544;2023-02-28T15:04:52;36.00;;;24.10;;
65641;SDS011;52340;-6.720;108.544;2023-02-28T15:05:58;32.65;;;21.63;;
65641;SDS011;52340;-6.720;108.544;2023-02-28T15:07:07;33.05;;;21.17;;
65641;SDS011;52340;-6.720;108.544;2023-02-28T15:08:11;30.50;;;22.08;;
65641;SDS011;52340;-6.720;108.544;2023-02-28T15:09:17;32.28;;;21.90;;
65641;SDS011;52340;-6.720;108.544;2023-02-28T15:10:20;29.27;;;20.70;;
65641;SDS011;52340;-6.720;108.544;2023-02-28T15:11:31;28.50;;;20.90;;
65641;SDS011;52340;-6.720;108.544;2023-02-28T15:13:44;33.33;;;21.02;;
65641;SDS011;52340;-6.720;108.544;2023-02-28T15:14:50;34.30;;;21.40;;
65641;SDS011;52340;-6.720;108.544;2023-02-28T15:16:00;31.05;;;20.63;;
65641;SDS011;52340;-6.720;108.544;2023-02-28T15:17:08;27.10;;;20.63;;
65641;SDS011;52340;-6.720;108.544;2023-02-28T15:18:22;32.40;;;21.42;;
65641;SDS011;52340;-6.720;108.544;2023-02-28T15:19:29;26.55;;;19.25;;
65641;SDS011;52340;-6.720;108.544;2023-02-28T15:20:34;28.15;;;18.90;;
65641;SDS011;52340;-6.720;108.544;2023-02-28T15:21:41;27.15;;;19.90;;
65641;SDS011;52340;-6.720;108.544;2023-02-28T15:22:45;27.50;;;19.70;;
65641;SDS011;52340;-6.720;108.544;2023-02-28T15:23:49;24.67;;;18.38;;
65641;SDS011;52340;-6.720;108.544;2023-02-28T15:24:52;31.80;;;20.55;;
65641;SDS011;52340;-6.720;108.544;2023-02-28T15:25:55;27.73;;;19.45;;
65641;SDS011;52340;-6.720;108.544;2023-02-28T15:28:10;28.05;;;18.48;;
65641;SDS011;52340;-6.720;108.544;2023-02-28T15:29:16;28.52;;;18.17;;
65641;SDS011;52340;-6.720;108.544;2023-02-28T15:30:24;28.17;;;18.08;;
65641;SDS011;52340;-6.720;108.544;2023-02-28T15:31:40;28.27;;;19.10;;
65641;SDS011;52340;-6.720;108.544;2023-02-28T15:33:55;29.33;;;19.10;;
65641;SDS011;52340;-6.720;108.544;2023-02-28T15:35:17;27.15;;;18.38;;
65641;SDS011;52340;-6.720;108.544;2023-02-28T15:36:21;26.13;;;19.02;;
65641;SDS011;52340;-6.720;108.544;2023-02-28T15:38:33;26.33;;;18.13;;
65641;SDS011;52340;-6.720;108.544;2023-02-28T15:39:40;27.38;;;18.35;;
65641;SDS011;52340;-6.720;108.544;2023-02-28T15:40:44;27.70;;;18.70;;
65641;SDS011;52340;-6.720;108.544;2023-02-28T15:41:47;28.88;;;18.92;;
65641;SDS011;52340;-6.720;108.544;2023-02-28T15:42:59;29.92;;;19.60;;
65641;SDS011;52340;-6.720;108.544;2023-02-28T15:44:18;26.30;;;18.33;;
65641;SDS011;52340;-6.720;108.544;2023-02-28T15:45:27;28.98;;;17.85;;
65641;SDS011;52340;-6.720;108.544;2023-02-28T15:49:17;25.70;;;18.48;;
65641;SDS011;52340;-6.720;108.544;2023-02-28T15:50:23;30.02;;;19.98;;
65641;SDS011;52340;-6.720;108.544;2023-02-28T15:51:27;26.05;;;18.48;;
65641;SDS011;52340;-6.720;108.544;2023-02-28T15:52:34;29.20;;;19.60;;
65641;SDS011;52340;-6.720;108.544;2023-02-28T15:53:44;35.05;;;19.67;;
65641;SDS011;52340;-6.720;108.544;2023-02-28T15:55:54;27.52;;;19.27;;
65641;SDS011;52340;-6.720;108.544;2023-02-28T15:57:02;27.20;;;19.13;;
65641;SDS011;52340;-6.720;108.544;2023-02-28T15:58:05;26.10;;;17.85;;
65641;SDS011;52340;-6.720;108.544;2023-02-28T16:00:25;25.50;;;18.38;;
65641;SDS011;52340;-6.720;108.544;2023-02-28T16:01:31;28.20;;;17.83;;
65641;SDS011;52340;-6.720;108.544;2023-02-28T16:02:34;25.83;;;18.15;;
65641;SDS011;52340;-6.720;108.544;2023-02-28T16:03:41;25.17;;;18.85;;
65641;SDS011;52340;-6.720;108.544;2023-02-28T16:07:34;28.92;;;17.92;;
65641;SDS011;52340;-6.720;108.544;2023-02-28T16:08:38;24.25;;;18.42;;
65641;SDS011;52340;-6.720;108.544;2023-02-28T16:09:41;27.27;;;18.42;;
65641;SDS011;52340;-6.720;108.544;2023-02-28T16:10:58;30.08;;;18.50;;
65641;SDS011;52340;-6.720;108.544;2023-02-28T16:12:02;23.45;;;17.27;;
65641;SDS011;52340;-6.720;108.544;2023-02-28T16:13:04;27.30;;;19.02;;
65641;SDS011;52340;-6.720;108.544;2023-02-28T16:15:18;26.77;;;18.95;;
65641;SDS011;52340;-6.720;108.544;2023-02-28T16:16:21;27.00;;;18.75;;
65641;SDS011;52340;-6.720;108.544;2023-02-28T16:17:26;25.15;;;18.50;;
65641;SDS011;52340;-6.720;108.544;2023-02-28T16:18:28;25.25;;;17.98;;
65641;SDS011;52340;-6.720;108.544;2023-02-28T16:19:31;26.55;;;18.75;;
65641;SDS011;52340;-6.720;108.544;2023-02-28T16:20:33;24.67;;;18.33;;
65641;SDS011;52340;-6.720;108.544;2023-02-28T16:21:39;30.77;;;19.02;;
65641;SDS011;52340;-6.720;108.544;2023-02-28T16:22:43;27.95;;;18.85;;
65641;SDS011;52340;-6.720;108.544;2023-02-28T16:27:16;28.70;;;19.77;;
65641;SDS011;52340;-6.720;108.544;2023-02-28T16:28:20;33.83;;;22.35;;
65641;SDS011;52340;-6.720;108.544;2023-02-28T16:29:26;25.88;;;19.30;;
65641;SDS011;52340;-6.720;108.544;2023-02-28T16:34:01;26.25;;;18.73;;
65641;SDS011;52340;-6.720;108.544;2023-02-28T16:35:08;27.98;;;19.10;;
65641;SDS011;52340;-6.720;108.544;2023-02-28T16:37:25;30.58;;;19.33;;
65641;SDS011;52340;-6.720;108.544;2023-02-28T16:38:33;26.20;;;18.75;;
65641;SDS011;52340;-6.720;108.544;2023-02-28T16:39:41;27.27;;;19.25;;
65641;SDS011;52340;-6.720;108.544;2023-02-28T16:40:55;25.75;;;18.75;;
65641;SDS011;52340;-6.720;108.544;2023-02-28T16:41:59;30.08;;;20.33;;
65641;SDS011;52340;-6.720;108.544;2023-02-28T16:43:04;34.13;;;20.45;;
65641;SDS011;52340;-6.720;108.544;2023-02-28T16:44:11;26.15;;;19.48;;
65641;SDS011;52340;-6.720;108.544;2023-02-28T16:46:27;34.97;;;20.63;;
65641;SDS011;52340;-6.720;108.544;2023-02-28T16:47:36;29.77;;;19.70;;
65641;SDS011;52340;-6.720;108.544;2023-02-28T16:48:39;28.15;;;20.42;;
65641;SDS011;52340;-6.720;108.544;2023-02-28T16:49:42;29.75;;;19.90;;
65641;SDS011;52340;-6.720;108.544;2023-02-28T16:53:08;28.45;;;21.33;;
65641;SDS011;52340;-6.720;108.544;2023-02-28T16:56:32;26.15;;;19.65;;
65641;SDS011;52340;-6.720;108.544;2023-02-28T16:57:35;29.25;;;20.17;;
65641;SDS011;52340;-6.720;108.544;2023-02-28T16:58:38;31.20;;;20.77;;
65641;SDS011;52340;-6.720;108.544;2023-02-28T17:00:49;29.77;;;20.50;;
65641;SDS011;52340;-6.720;108.544;2023-02-28T17:01:54;29.75;;;19.92;;
65641;SDS011;52340;-6.720;108.544;2023-02-28T17:02:59;29.98;;;19.92;;
65641;SDS011;52340;-6.720;108.544;2023-02-28T17:04:01;30.35;;;19.58;;
65641;SDS011;52340;-6.720;108.544;2023-02-28T17:05:03;29.60;;;20.08;;
65641;SDS011;52340;-6.720;108.544;2023-02-28T17:06:08;28.90;;;19.77;;
65641;SDS011;52340;-6.720;108.544;2023-02-28T17:07:20;30.58;;;20.70;;
65641;SDS011;52340;-6.720;108.544;2023-02-28T17:09:34;35.00;;;21.83;;
65641;SDS011;52340;-6.720;108.544;2023-02-28T17:10:37;30.95;;;21.05;;
65641;SDS011;52340;-6.720;108.544;2023-02-28T17:11:39;34.05;;;22.60;;
65641;SDS011;52340;-6.720;108.544;2023-02-28T17:12:40;33.35;;;22.27;;
65641;SDS011;52340;-6.720;108.544;2023-02-28T17:14:49;32.85;;;21.73;;
65641;SDS011;52340;-6.720;108.544;2023-02-28T17:15:51;30.33;;;20.77;;
65641;SDS011;52340;-6.720;108.544;2023-02-28T17:16:53;31.60;;;21.17;;
65641;SDS011;52340;-6.720;108.544;2023-02-28T17:17:55;31.58;;;21.95;;
65641;SDS011;52340;-6.720;108.544;2023-02-28T17:18:59;32.03;;;21.15;;
65641;SDS011;52340;-6.720;108.544;2023-02-28T17:20:02;30.23;;;22.45;;
65641;SDS011;52340;-6.720;108.544;2023-02-28T17:21:11;28.95;;;22.13;;
65641;SDS011;52340;-6.720;108.544;2023-02-28T17:23:26;28.95;;;22.02;;
65641;SDS011;52340;-6.720;108.544;2023-02-28T17:24:29;33.38;;;23.05;;
65641;SDS011;52340;-6.720;108.544;2023-02-28T17:25:35;29.70;;;21.48;;
65641;SDS011;52340;-6.720;108.544;2023-02-28T17:26:38;32.75;;;22.08;;
65641;SDS011;52340;-6.720;108.544;2023-02-28T17:28:50;30.13;;;22.52;;
65641;SDS011;52340;-6.720;108.544;2023-02-28T17:29:58;32.13;;;22.50;;
65641;SDS011;52340;-6.720;108.544;2023-02-28T17:31:00;30.10;;;21.77;;
65641;SDS011;52340;-6.720;108.544;2023-02-28T17:32:03;30.63;;;21.98;;
65641;SDS011;52340;-6.720;108.544;2023-02-28T17:33:05;32.67;;;22.15;;
65641;SDS011;52340;-6.720;108.544;2023-02-28T17:34:09;29.88;;;21.33;;
65641;SDS011;52340;-6.720;108.544;2023-02-28T17:35:13;28.85;;;20.50;;
65641;SDS011;52340;-6.720;108.544;2023-02-28T17:36:17;31.63;;;20.45;;
65641;SDS011;52340;-6.720;108.544;2023-02-28T17:37:23;28.55;;;21.55;;
65641;SDS011;52340;-6.720;108.544;2023-02-28T17:38:27;28.60;;;21.42;;
65641;SDS011;52340;-6.720;108.544;2023-02-28T17:39:30;30.23;;;20.92;;
65641;SDS011;52340;-6.720;108.544;2023-02-28T17:40:32;29.58;;;22.40;;
65641;SDS011;52340;-6.720;108.544;2023-02-28T17:41:37;33.17;;;22.25;;
65641;SDS011;52340;-6.720;108.544;2023-02-28T17:42:52;33.40;;;22.50;;
65641;SDS011;52340;-6.720;108.544;2023-02-28T17:43:54;29.92;;;22.17;;
65641;SDS011;52340;-6.720;108.544;2023-02-28T17:44:58;29.95;;;22.73;;
65641;SDS011;52340;-6.720;108.544;2023-02-28T17:48:18;32.53;;;23.23;;
65641;SDS011;52340;-6.720;108.544;2023-02-28T17:49:20;29.85;;;22.35;;
65641;SDS011;52340;-6.720;108.544;2023-02-28T17:50:24;29.58;;;22.23;;
65641;SDS011;52340;-6.720;108.544;2023-02-28T17:51:27;31.00;;;21.58;;
65641;SDS011;52340;-6.720;108.544;2023-02-28T17:52:29;28.33;;;21.20;;
65641;SDS011;52340;-6.720;108.544;2023-02-28T17:53:32;29.55;;;21.75;;
65641;SDS011;52340;-6.720;108.544;2023-02-28T17:54:35;28.90;;;21.27;;
65641;SDS011;52340;-6.720;108.544;2023-02-28T17:55:43;32.83;;;21.95;;
65641;SDS011;52340;-6.720;108.544;2023-02-28T17:56:45;32.88;;;23.05;;
65641;SDS011;52340;-6.720;108.544;2023-02-28T17:57:48;26.75;;;21.00;;
65641;SDS011;52340;-6.720;108.544;2023-02-28T17:58:50;27.92;;;21.88;;
65641;SDS011;52340;-6.720;108.544;2023-02-28T17:59:53;30.20;;;21.42;;
65641;SDS011;52340;-6.720;108.544;2023-02-28T18:00:58;30.80;;;21.02;;
65641;SDS011;52340;-6.720;108.544;2023-02-28T18:01:59;31.05;;;22.05;;
65641;SDS011;52340;-6.720;108.544;2023-02-28T18:03:03;31.10;;;21.65;;
65641;SDS011;52340;-6.720;108.544;2023-02-28T18:10:03;29.88;;;21.63;;
65641;SDS011;52340;-6.720;108.544;2023-02-28T18:11:10;31.40;;;22.10;;
65641;SDS011;52340;-6.720;108.544;2023-02-28T18:12:12;30.15;;;21.73;;
65641;SDS011;52340;-6.720;108.544;2023-02-28T18:13:16;30.85;;;22.15;;
65641;SDS011;52340;-6.720;108.544;2023-02-28T18:14:19;30.55;;;21.52;;
65641;SDS011;52340;-6.720;108.544;2023-02-28T18:15:21;29.85;;;21.25;;
65641;SDS011;52340;-6.720;108.544;2023-02-28T18:16:27;28.42;;;21.50;;
65641;SDS011;52340;-6.720;108.544;2023-02-28T18:17:28;32.60;;;21.60;;
65641;SDS011;52340;-6.720;108.544;2023-02-28T18:18:31;28.38;;;20.38;;
65641;SDS011;52340;-6.720;108.544;2023-02-28T18:19:33;30.92;;;21.80;;
65641;SDS011;52340;-6.720;108.544;2023-02-28T18:20:38;31.17;;;21.10;;
65641;SDS011;52340;-6.720;108.544;2023-02-28T18:21:40;30.77;;;21.02;;
65641;SDS011;52340;-6.720;108.544;2023-02-28T18:22:42;30.13;;;21.00;;
65641;SDS011;52340;-6.720;108.544;2023-02-28T18:23:46;29.38;;;20.67;;
65641;SDS011;52340;-6.720;108.544;2023-02-28T18:24:51;31.55;;;21.65;;
65641;SDS011;52340;-6.720;108.544;2023-02-28T18:25:55;28.85;;;21.13;;
65641;SDS011;52340;-6.720;108.544;2023-02-28T18:26:59;28.10;;;20.98;;
65641;SDS011;52340;-6.720;108.544;2023-02-28T18:28:01;28.00;;;20.95;;
65641;SDS011;52340;-6.720;108.544;2023-02-28T18:29:04;30.58;;;21.10;;
65641;SDS011;52340;-6.720;108.544;2023-02-28T18:30:08;30.40;;;21.15;;
65641;SDS011;52340;-6.720;108.544;2023-02-28T18:31:17;27.00;;;20.15;;
65641;SDS011;52340;-6.720;108.544;2023-02-28T18:32:22;26.77;;;20.77;;
65641;SDS011;52340;-6.720;108.544;2023-02-28T18:33:24;26.92;;;20.92;;
65641;SDS011;52340;-6.720;108.544;2023-02-28T18:35:36;29.20;;;20.60;;
65641;SDS011;52340;-6.720;108.544;2023-02-28T18:36:38;29.08;;;21.08;;
65641;SDS011;52340;-6.720;108.544;2023-02-28T18:38:46;33.22;;;21.42;;
65641;SDS011;52340;-6.720;108.544;2023-02-28T18:39:52;28.27;;;20.85;;
65641;SDS011;52340;-6.720;108.544;2023-02-28T18:40:55;28.05;;;21.13;;
65641;SDS011;52340;-6.720;108.544;2023-02-28T18:42:02;29.95;;;21.58;;
65641;SDS011;52340;-6.720;108.544;2023-02-28T18:43:06;28.23;;;20.92;;
65641;SDS011;52340;-6.720;108.544;2023-02-28T18:45:17;31.08;;;21.00;;
65641;SDS011;52340;-6.720;108.544;2023-02-28T18:46:21;29.70;;;21.52;;
65641;SDS011;52340;-6.720;108.544;2023-02-28T18:47:25;29.77;;;20.38;;
65641;SDS011;52340;-6.720;108.544;2023-02-28T18:48:27;29.63;;;21.30;;
65641;SDS011;52340;-6.720;108.544;2023-02-28T18:49:31;31.15;;;21.10;;
65641;SDS011;52340;-6.720;108.544;2023-02-28T18:50:33;28.50;;;21.15;;
65641;SDS011;52340;-6.720;108.544;2023-02-28T18:51:37;27.83;;;19.45;;
65641;SDS011;52340;-6.720;108.544;2023-02-28T18:52:42;33.50;;;21.48;;
65641;SDS011;52340;-6.720;108.544;2023-02-28T18:53:44;29.70;;;21.58;;
65641;SDS011;52340;-6.720;108.544;2023-02-28T18:54:47;31.58;;;21.50;;
65641;SDS011;52340;-6.720;108.544;2023-02-28T18:55:48;30.02;;;21.35;;
65641;SDS011;52340;-6.720;108.544;2023-02-28T18:56:51;28.65;;;21.45;;
65641;SDS011;52340;-6.720;108.544;2023-02-28T18:57:59;32.08;;;22.70;;
65641;SDS011;52340;-6.720;108.544;2023-02-28T19:00:12;30.77;;;22.27;;
65641;SDS011;52340;-6.720;108.544;2023-02-28T19:01:17;30.52;;;21.52;;
65641;SDS011;52340;-6.720;108.544;2023-02-28T19:02:21;33.58;;;21.70;;